AUA732 LQSA-LOWW
Flight info
| Callsign | AUA732 |
|---|---|
| Flight time | 0h 47m |
| Altitude | 34000 |
| Route | BOSNA DCT OBUTI OBUTI2W |
| Aircraft | A320/M-SDE3FGHIRWY/LB1 |
Departure
| Time | 2026-04-22 18:10 |
|---|---|
| Airport | Sarajevo International Airport (LQSA) |
Arrival
| Time | 2026-04-22 18:58 |
|---|---|
| Airport | Vienna International Airport (LOWW) |
| Time | Latitude | Longitude | Altitude | Speed | Heading |
|---|---|---|---|---|---|
| 2026-04-22 17:46 | 43.82520 | 18.33690 | 1708 ft | 0 kts | 28° |
| 2026-04-22 18:03 | 43.82506 | 18.33680 | 1708 ft | 4 kts | 34° |
| 2026-04-22 18:03 | 43.82485 | 18.33656 | 1710 ft | 4 kts | 49° |
| 2026-04-22 18:04 | 43.82471 | 18.33626 | 1709 ft | 4 kts | 74° |
| 2026-04-22 18:04 | 43.82470 | 18.33594 | 1708 ft | 0 kts | 115° |
| 2026-04-22 18:06 | 43.82469 | 18.33596 | 1708 ft | 2 kts | 115° |
| 2026-04-22 18:06 | 43.82455 | 18.33636 | 1709 ft | 7 kts | 117° |
| 2026-04-22 18:06 | 43.82423 | 18.33721 | 1708 ft | 12 kts | 118° |
| 2026-04-22 18:07 | 43.82388 | 18.33813 | 1707 ft | 10 kts | 117° |
| 2026-04-22 18:07 | 43.82359 | 18.33889 | 1708 ft | 9 kts | 118° |
| 2026-04-22 18:07 | 43.82320 | 18.33992 | 1709 ft | 15 kts | 117° |
| 2026-04-22 18:07 | 43.82267 | 18.34135 | 1710 ft | 17 kts | 117° |
| 2026-04-22 18:08 | 43.82227 | 18.34244 | 1711 ft | 11 kts | 117° |
| 2026-04-22 18:08 | 43.82191 | 18.34340 | 1711 ft | 11 kts | 117° |
| 2026-04-22 18:08 | 43.82159 | 18.34423 | 1713 ft | 9 kts | 117° |
| 2026-04-22 18:08 | 43.82124 | 18.34515 | 1711 ft | 11 kts | 118° |
| 2026-04-22 18:09 | 43.82083 | 18.34596 | 1714 ft | 13 kts | 139° |
| 2026-04-22 18:09 | 43.81983 | 18.34614 | 1716 ft | 15 kts | 202° |
| 2026-04-22 18:09 | 43.81936 | 18.34537 | 1715 ft | 11 kts | 291° |
| 2026-04-22 18:09 | 43.81985 | 18.34407 | 1712 ft | 28 kts | 297° |
| 2026-04-22 18:10 | 43.82208 | 18.33809 | 1709 ft | 107 kts | 297° |
| 2026-04-22 18:10 | 43.82645 | 18.32638 | 1807 ft | 155 kts | 297° |
| 2026-04-22 18:10 | 43.83205 | 18.31358 | 2639 ft | 155 kts | 319° |
| 2026-04-22 18:10 | 43.84173 | 18.30707 | 3299 ft | 163 kts | 345° |
| 2026-04-22 18:11 | 43.85330 | 18.30212 | 3690 ft | 185 kts | 342° |
| 2026-04-22 18:11 | 43.86634 | 18.29637 | 4062 ft | 210 kts | 340° |
| 2026-04-22 18:11 | 43.88102 | 18.28978 | 4672 ft | 231 kts | 342° |
| 2026-04-22 18:11 | 43.89651 | 18.28277 | 5698 ft | 235 kts | 346° |
| 2026-04-22 18:12 | 43.91213 | 18.27569 | 6675 ft | 240 kts | 345° |
| 2026-04-22 18:12 | 43.92818 | 18.26842 | 7568 ft | 245 kts | 345° |
| 2026-04-22 18:12 | 43.93919 | 18.26341 | 8257 ft | 247 kts | 345° |
| 2026-04-22 18:12 | 43.96134 | 18.25595 | 9572 ft | 249 kts | 356° |
| 2026-04-22 18:13 | 43.97903 | 18.25362 | 10302 ft | 264 kts | 356° |
| 2026-04-22 18:13 | 43.99774 | 18.25122 | 11005 ft | 274 kts | 356° |
| 2026-04-22 18:13 | 44.01692 | 18.24879 | 11896 ft | 279 kts | 356° |
| 2026-04-22 18:13 | 44.03636 | 18.24629 | 12806 ft | 282 kts | 355° |
| 2026-04-22 18:14 | 44.05569 | 18.24037 | 13708 ft | 287 kts | 340° |
| 2026-04-22 18:14 | 44.07361 | 18.22741 | 14412 ft | 299 kts | 327° |
| 2026-04-22 18:14 | 44.08951 | 18.20697 | 14651 ft | 325 kts | 313° |
| 2026-04-22 18:14 | 44.10490 | 18.18240 | 14830 ft | 348 kts | 313° |
| 2026-04-22 18:15 | 44.12131 | 18.15623 | 14964 ft | 370 kts | 313° |
| 2026-04-22 18:15 | 44.13857 | 18.12879 | 15387 ft | 381 kts | 313° |
| 2026-04-22 18:15 | 44.15616 | 18.10089 | 16005 ft | 385 kts | 313° |
| 2026-04-22 18:15 | 44.17393 | 18.07276 | 16639 ft | 389 kts | 314° |
| 2026-04-22 18:16 | 44.19189 | 18.04437 | 17289 ft | 392 kts | 314° |
| 2026-04-22 18:16 | 44.21000 | 18.01570 | 17928 ft | 396 kts | 314° |
| 2026-04-22 18:16 | 44.22826 | 17.98670 | 18555 ft | 399 kts | 314° |
| 2026-04-22 18:16 | 44.24667 | 17.95743 | 19068 ft | 402 kts | 314° |
| 2026-04-22 18:17 | 44.26521 | 17.92794 | 19625 ft | 405 kts | 314° |
| 2026-04-22 18:17 | 44.28388 | 17.89824 | 20180 ft | 408 kts | 314° |
| 2026-04-22 18:17 | 44.30263 | 17.86836 | 20723 ft | 410 kts | 314° |
| 2026-04-22 18:17 | 44.32147 | 17.83829 | 21232 ft | 413 kts | 314° |
| 2026-04-22 18:18 | 44.34044 | 17.80800 | 21728 ft | 416 kts | 314° |
| 2026-04-22 18:18 | 44.36015 | 17.77830 | 22232 ft | 417 kts | 319° |
| 2026-04-22 18:18 | 44.38272 | 17.75300 | 22714 ft | 417 kts | 328° |
| 2026-04-22 18:18 | 44.40794 | 17.73303 | 23160 ft | 418 kts | 335° |
| 2026-04-22 18:19 | 44.43404 | 17.71477 | 23651 ft | 421 kts | 335° |
| 2026-04-22 18:19 | 44.46032 | 17.69623 | 24058 ft | 424 kts | 335° |
| 2026-04-22 18:19 | 44.48666 | 17.67746 | 24447 ft | 426 kts | 334° |
| 2026-04-22 18:19 | 44.51311 | 17.65846 | 24827 ft | 428 kts | 334° |
| 2026-04-22 18:20 | 44.53967 | 17.63930 | 25193 ft | 431 kts | 334° |
| 2026-04-22 18:20 | 44.56643 | 17.62001 | 25532 ft | 433 kts | 334° |
| 2026-04-22 18:20 | 44.59323 | 17.60075 | 25890 ft | 435 kts | 334° |
| 2026-04-22 18:20 | 44.62026 | 17.58134 | 26232 ft | 437 kts | 334° |
| 2026-04-22 18:21 | 44.64740 | 17.56186 | 26555 ft | 439 kts | 334° |
| 2026-04-22 18:21 | 44.67469 | 17.54232 | 26886 ft | 442 kts | 334° |
| 2026-04-22 18:21 | 44.70216 | 17.52263 | 27215 ft | 444 kts | 334° |
| 2026-04-22 18:21 | 44.72967 | 17.50279 | 27535 ft | 446 kts | 334° |
| 2026-04-22 18:22 | 44.75725 | 17.48285 | 27923 ft | 446 kts | 334° |
| 2026-04-22 18:22 | 44.78480 | 17.46288 | 28399 ft | 444 kts | 333° |
| 2026-04-22 18:22 | 44.81226 | 17.44297 | 28883 ft | 443 kts | 333° |
| 2026-04-22 18:22 | 44.83938 | 17.42333 | 29667 ft | 435 kts | 333° |
| 2026-04-22 18:23 | 44.86618 | 17.40395 | 30307 ft | 432 kts | 333° |
| 2026-04-22 18:23 | 44.89282 | 17.38467 | 30735 ft | 430 kts | 333° |
| 2026-04-22 18:23 | 44.91943 | 17.36538 | 31155 ft | 429 kts | 333° |
| 2026-04-22 18:24 | 44.97242 | 17.32692 | 31967 ft | 428 kts | 333° |
| 2026-04-22 18:24 | 44.99887 | 17.30768 | 32381 ft | 428 kts | 333° |
| 2026-04-22 18:24 | 45.05175 | 17.26911 | 33191 ft | 427 kts | 333° |
| 2026-04-22 18:25 | 45.07814 | 17.24981 | 33542 ft | 428 kts | 333° |
| 2026-04-22 18:25 | 45.10459 | 17.23045 | 33906 ft | 428 kts | 333° |
| 2026-04-22 18:25 | 45.13112 | 17.21100 | 34168 ft | 429 kts | 333° |
| 2026-04-22 18:26 | 45.21056 | 17.15264 | 34208 ft | 427 kts | 333° |
| 2026-04-22 18:26 | 45.26395 | 17.11344 | 34209 ft | 435 kts | 333° |
| 2026-04-22 18:27 | 45.31756 | 17.07401 | 34206 ft | 438 kts | 333° |
| 2026-04-22 18:27 | 45.37204 | 17.03380 | 34204 ft | 439 kts | 333° |
| 2026-04-22 18:28 | 45.42587 | 16.99395 | 34205 ft | 439 kts | 333° |
| 2026-04-22 18:28 | 45.48035 | 16.95352 | 34201 ft | 439 kts | 333° |
| 2026-04-22 18:29 | 45.53421 | 16.91335 | 34187 ft | 439 kts | 333° |
| 2026-04-22 18:29 | 45.58832 | 16.87300 | 34191 ft | 438 kts | 333° |
| 2026-04-22 18:30 | 45.66942 | 16.81253 | 34197 ft | 438 kts | 333° |
| 2026-04-22 18:31 | 45.72349 | 16.77202 | 34204 ft | 439 kts | 333° |
| 2026-04-22 18:31 | 45.77756 | 16.73130 | 34198 ft | 439 kts | 333° |
| 2026-04-22 18:32 | 45.83166 | 16.69057 | 34172 ft | 439 kts | 333° |
| 2026-04-22 18:32 | 45.88588 | 16.64986 | 34178 ft | 440 kts | 333° |
| 2026-04-22 18:33 | 45.94004 | 16.60893 | 34183 ft | 440 kts | 333° |
| 2026-04-22 18:33 | 45.99420 | 16.56784 | 34189 ft | 440 kts | 333° |
| 2026-04-22 18:34 | 46.04844 | 16.52667 | 34183 ft | 441 kts | 333° |
| 2026-04-22 18:34 | 46.10271 | 16.48539 | 34160 ft | 441 kts | 333° |
| 2026-04-22 18:35 | 46.15688 | 16.44404 | 34170 ft | 441 kts | 333° |
| 2026-04-22 18:35 | 46.21113 | 16.40256 | 34022 ft | 442 kts | 334° |
| 2026-04-22 18:35 | 46.23831 | 16.38174 | 33877 ft | 442 kts | 334° |
| 2026-04-22 18:36 | 46.26524 | 16.36108 | 33132 ft | 445 kts | 334° |
| 2026-04-22 18:36 | 46.29252 | 16.34012 | 32279 ft | 443 kts | 334° |
| 2026-04-22 18:36 | 46.32012 | 16.31898 | 31443 ft | 441 kts | 335° |
| 2026-04-22 18:36 | 46.34825 | 16.30399 | 30665 ft | 435 kts | 349° |
| 2026-04-22 18:37 | 46.37787 | 16.29599 | 30137 ft | 433 kts | 351° |
| 2026-04-22 18:37 | 46.40753 | 16.28832 | 29608 ft | 434 kts | 352° |
| 2026-04-22 18:37 | 46.42766 | 16.28314 | 29260 ft | 434 kts | 352° |
| 2026-04-22 18:37 | 46.46721 | 16.27303 | 28562 ft | 437 kts | 352° |
| 2026-04-22 18:38 | 46.49718 | 16.26539 | 28060 ft | 438 kts | 352° |
| 2026-04-22 18:38 | 46.52723 | 16.25768 | 27563 ft | 439 kts | 352° |
| 2026-04-22 18:38 | 46.55744 | 16.24985 | 27082 ft | 440 kts | 352° |
| 2026-04-22 18:39 | 46.60806 | 16.23670 | 26293 ft | 442 kts | 352° |
| 2026-04-22 18:39 | 46.63837 | 16.22882 | 25826 ft | 443 kts | 352° |
| 2026-04-22 18:39 | 46.66839 | 16.22100 | 25378 ft | 446 kts | 352° |
| 2026-04-22 18:39 | 46.69902 | 16.21301 | 24933 ft | 448 kts | 352° |
| 2026-04-22 18:40 | 46.72970 | 16.20502 | 24501 ft | 448 kts | 352° |
| 2026-04-22 18:40 | 46.76038 | 16.19704 | 24160 ft | 446 kts | 352° |
| 2026-04-22 18:40 | 46.79105 | 16.19102 | 23799 ft | 442 kts | 360° |
| 2026-04-22 18:40 | 46.82127 | 16.19539 | 23146 ft | 434 kts | 14° |
| 2026-04-22 18:41 | 46.85025 | 16.20711 | 22510 ft | 431 kts | 17° |
| 2026-04-22 18:41 | 46.87893 | 16.21906 | 21885 ft | 427 kts | 17° |
| 2026-04-22 18:41 | 46.90735 | 16.23092 | 21273 ft | 423 kts | 17° |
| 2026-04-22 18:41 | 46.93556 | 16.24266 | 20672 ft | 419 kts | 17° |
| 2026-04-22 18:42 | 46.96350 | 16.25423 | 20122 ft | 416 kts | 17° |
| 2026-04-22 18:42 | 46.99124 | 16.26567 | 19617 ft | 413 kts | 16° |
| 2026-04-22 18:42 | 47.01879 | 16.27700 | 19123 ft | 410 kts | 16° |
| 2026-04-22 18:42 | 47.04620 | 16.28825 | 18628 ft | 407 kts | 16° |
| 2026-04-22 18:43 | 47.07336 | 16.29944 | 18100 ft | 404 kts | 16° |
| 2026-04-22 18:43 | 47.10033 | 16.31060 | 17559 ft | 401 kts | 16° |
| 2026-04-22 18:43 | 47.12710 | 16.32169 | 17017 ft | 399 kts | 16° |
| 2026-04-22 18:43 | 47.15373 | 16.33274 | 16488 ft | 396 kts | 16° |
| 2026-04-22 18:44 | 47.18015 | 16.34374 | 15965 ft | 394 kts | 16° |
| 2026-04-22 18:44 | 47.20645 | 16.35472 | 15452 ft | 391 kts | 16° |
| 2026-04-22 18:44 | 47.23254 | 16.36559 | 14949 ft | 389 kts | 16° |
| 2026-04-22 18:44 | 47.25849 | 16.37640 | 14459 ft | 387 kts | 16° |
| 2026-04-22 18:45 | 47.28429 | 16.38713 | 13960 ft | 384 kts | 16° |
| 2026-04-22 18:45 | 47.30997 | 16.39778 | 13413 ft | 382 kts | 16° |
| 2026-04-22 18:45 | 47.33540 | 16.40838 | 12873 ft | 378 kts | 16° |
| 2026-04-22 18:45 | 47.36067 | 16.41895 | 12342 ft | 376 kts | 16° |
| 2026-04-22 18:46 | 47.38572 | 16.42947 | 11819 ft | 373 kts | 16° |
| 2026-04-22 18:46 | 47.41058 | 16.43990 | 11301 ft | 370 kts | 16° |
| 2026-04-22 18:46 | 47.43524 | 16.45026 | 10803 ft | 367 kts | 15° |
| 2026-04-22 18:46 | 47.45973 | 16.46051 | 10306 ft | 365 kts | 15° |
| 2026-04-22 18:47 | 47.48411 | 16.47074 | 9777 ft | 362 kts | 15° |
| 2026-04-22 18:47 | 47.50826 | 16.48089 | 9237 ft | 360 kts | 15° |
| 2026-04-22 18:47 | 47.53223 | 16.49098 | 8708 ft | 357 kts | 15° |
| 2026-04-22 18:47 | 47.55600 | 16.50102 | 8186 ft | 354 kts | 15° |
| 2026-04-22 18:48 | 47.57931 | 16.51089 | 7666 ft | 351 kts | 15° |
| 2026-04-22 18:48 | 47.60271 | 16.52078 | 7164 ft | 349 kts | 15° |
| 2026-04-22 18:48 | 47.62598 | 16.53060 | 6661 ft | 346 kts | 15° |
| 2026-04-22 18:48 | 47.64875 | 16.54023 | 6242 ft | 332 kts | 15° |
| 2026-04-22 18:49 | 47.67035 | 16.54941 | 6021 ft | 312 kts | 15° |
| 2026-04-22 18:49 | 47.69076 | 16.55807 | 6017 ft | 302 kts | 15° |
| 2026-04-22 18:49 | 47.71073 | 16.56652 | 6015 ft | 290 kts | 15° |
| 2026-04-22 18:49 | 47.72975 | 16.57458 | 6027 ft | 281 kts | 14° |
| 2026-04-22 18:50 | 47.74846 | 16.58251 | 6021 ft | 273 kts | 14° |
| 2026-04-22 18:50 | 47.76603 | 16.59001 | 6000 ft | 253 kts | 14° |
| 2026-04-22 18:50 | 47.78288 | 16.59718 | 5526 ft | 253 kts | 14° |
| 2026-04-22 18:50 | 47.79980 | 16.60436 | 5087 ft | 251 kts | 14° |
| 2026-04-22 18:51 | 47.81652 | 16.61146 | 4779 ft | 249 kts | 14° |
| 2026-04-22 18:51 | 47.83304 | 16.61852 | 4524 ft | 243 kts | 14° |
| 2026-04-22 18:51 | 47.84881 | 16.62525 | 4383 ft | 229 kts | 14° |
| 2026-04-22 18:51 | 47.86369 | 16.63161 | 4260 ft | 216 kts | 14° |
| 2026-04-22 18:52 | 47.87772 | 16.63762 | 4128 ft | 204 kts | 14° |
| 2026-04-22 18:52 | 47.89101 | 16.64329 | 4000 ft | 194 kts | 14° |
| 2026-04-22 18:52 | 47.90384 | 16.64878 | 3872 ft | 190 kts | 14° |
| 2026-04-22 18:52 | 47.91654 | 16.65419 | 3746 ft | 189 kts | 14° |
| 2026-04-22 18:53 | 47.92934 | 16.65727 | 3619 ft | 184 kts | 356° |
| 2026-04-22 18:53 | 47.94153 | 16.65327 | 3539 ft | 176 kts | 346° |
| 2026-04-22 18:53 | 47.95320 | 16.64837 | 3377 ft | 173 kts | 346° |
| 2026-04-22 18:53 | 47.96475 | 16.64352 | 3183 ft | 171 kts | 346° |
| 2026-04-22 18:54 | 47.97601 | 16.63879 | 2957 ft | 165 kts | 345° |
| 2026-04-22 18:54 | 47.98672 | 16.63428 | 2727 ft | 154 kts | 345° |
| 2026-04-22 18:54 | 47.99677 | 16.63005 | 2536 ft | 147 kts | 345° |
| 2026-04-22 18:54 | 48.00642 | 16.62600 | 2329 ft | 138 kts | 345° |
| 2026-04-22 18:55 | 48.01525 | 16.62228 | 2162 ft | 129 kts | 346° |
| 2026-04-22 18:55 | 48.02374 | 16.61870 | 1986 ft | 126 kts | 346° |
| 2026-04-22 18:55 | 48.03213 | 16.61517 | 1813 ft | 125 kts | 346° |
| 2026-04-22 18:55 | 48.04047 | 16.61166 | 1637 ft | 125 kts | 345° |
| 2026-04-22 18:56 | 48.04880 | 16.60815 | 1464 ft | 124 kts | 345° |
| 2026-04-22 18:56 | 48.05713 | 16.60464 | 1293 ft | 125 kts | 344° |
| 2026-04-22 18:56 | 48.06545 | 16.60114 | 1106 ft | 124 kts | 344° |
| 2026-04-22 18:56 | 48.07369 | 16.59767 | 946 ft | 124 kts | 344° |
| 2026-04-22 18:57 | 48.08199 | 16.59415 | 776 ft | 124 kts | 343° |
| 2026-04-22 18:57 | 48.09022 | 16.59069 | 624 ft | 122 kts | 343° |
| 2026-04-22 18:57 | 48.09726 | 16.58766 | 611 ft | 89 kts | 345° |
| 2026-04-22 18:57 | 48.10228 | 16.58554 | 617 ft | 50 kts | 344° |
| 2026-04-22 18:58 | 48.10395 | 16.58422 | 617 ft | 18 kts | 308° |
| 2026-04-22 18:58 | 48.10445 | 16.58303 | 619 ft | 14 kts | 298° |
| 2026-04-22 18:58 | 48.10461 | 16.58260 | 617 ft | 0 kts | 299° |
| 2026-04-22 18:58 | 48.10467 | 16.58244 | 623 ft | 4 kts | 299° |
| 2026-04-22 18:59 | 48.10470 | 16.58235 | 621 ft | 1 kts | 299° |
| 2026-04-22 18:59 | 48.10470 | 16.58234 | 620 ft | 0 kts | 299° |
| 2026-04-22 18:59 | 48.10473 | 16.58227 | 622 ft | 2 kts | 299° |
| 2026-04-22 19:00 | 48.10505 | 16.58172 | 610 ft | 14 kts | 323° |
| 2026-04-22 19:00 | 48.10627 | 16.58110 | 609 ft | 20 kts | 344° |
| 2026-04-22 19:00 | 48.10771 | 16.58048 | 619 ft | 23 kts | 343° |
| 2026-04-22 19:00 | 48.10921 | 16.57984 | 613 ft | 23 kts | 345° |
| 2026-04-22 19:01 | 48.11070 | 16.57921 | 621 ft | 18 kts | 341° |
| 2026-04-22 19:01 | 48.11137 | 16.57781 | 614 ft | 14 kts | 294° |
| 2026-04-22 19:01 | 48.11180 | 16.57646 | 625 ft | 16 kts | 296° |
| 2026-04-22 19:01 | 48.11233 | 16.57484 | 619 ft | 19 kts | 295° |
| 2026-04-22 19:02 | 48.11294 | 16.57297 | 625 ft | 21 kts | 296° |
| 2026-04-22 19:02 | 48.11362 | 16.57089 | 617 ft | 23 kts | 296° |
| 2026-04-22 19:02 | 48.11421 | 16.56909 | 612 ft | 11 kts | 300° |
| 2026-04-22 19:02 | 48.11495 | 16.56893 | 614 ft | 13 kts | 25° |
| 2026-04-22 19:03 | 48.11586 | 16.56884 | 623 ft | 15 kts | 314° |
| 2026-04-22 19:03 | 48.11626 | 16.56805 | 613 ft | 6 kts | 349° |
| 2026-04-22 19:03 | 48.11674 | 16.56833 | 622 ft | 6 kts | 26° |
| 2026-04-22 19:03 | 48.11694 | 16.56847 | 618 ft | 1 kts | 25° |
| 2026-04-22 19:04 | 48.11695 | 16.56848 | 618 ft | 0 kts | 25° |